sensor_id;sensor_type;location;lat;lon;timestamp;pressure;altitude;pressure_sealevel;temperature;humidity
13800;BME280;6971;50.028;9.258;2023-04-26T00:02:57;99496.19;;;0.12;100.00
13800;BME280;6971;50.028;9.258;2023-04-26T00:07:58;99503.13;;;0.14;100.00
13800;BME280;6971;50.028;9.258;2023-04-26T00:12:59;99495.41;;;0.06;100.00
13800;BME280;6971;50.028;9.258;2023-04-26T00:17:59;99499.69;;;0.08;100.00
13800;BME280;6971;50.028;9.258;2023-04-26T00:23:00;99505.84;;;-0.02;100.00
13800;BME280;6971;50.028;9.258;2023-04-26T00:28:00;99507.56;;;-0.01;100.00
13800;BME280;6971;50.028;9.258;2023-04-26T00:33:03;99500.78;;;-0.16;100.00
13800;BME280;6971;50.028;9.258;2023-04-26T00:38:04;99509.41;;;-0.16;100.00
13800;BME280;6971;50.028;9.258;2023-04-26T00:43:05;99512.06;;;-0.22;100.00
13800;BME280;6971;50.028;9.258;2023-04-26T00:48:05;99513.81;;;-0.24;100.00
13800;BME280;6971;50.028;9.258;2023-04-26T00:53:07;99517.28;;;-0.25;100.00
13800;BME280;6971;50.028;9.258;2023-04-26T00:58:07;99519.13;;;-0.43;100.00
13800;BME280;6971;50.028;9.258;2023-04-26T01:03:08;99515.72;;;-0.48;100.00
13800;BME280;6971;50.028;9.258;2023-04-26T01:08:09;99520.94;;;-0.54;100.00
13800;BME280;6971;50.028;9.258;2023-04-26T01:13:09;99523.50;;;-0.51;100.00
13800;BME280;6971;50.028;9.258;2023-04-26T01:18:11;99521.88;;;-0.66;100.00
13800;BME280;6971;50.028;9.258;2023-04-26T01:23:13;99527.03;;;-0.61;100.00
13800;BME280;6971;50.028;9.258;2023-04-26T01:28:13;99526.22;;;-0.70;100.00
13800;BME280;6971;50.028;9.258;2023-04-26T01:33:13;99524.50;;;-0.72;100.00
13800;BME280;6971;50.028;9.258;2023-04-26T01:38:15;99517.69;;;-0.86;100.00
13800;BME280;6971;50.028;9.258;2023-04-26T01:43:16;99528.06;;;-0.94;100.00
13800;BME280;6971;50.028;9.258;2023-04-26T01:48:22;99515.16;;;-0.98;100.00
13800;BME280;6971;50.028;9.258;2023-04-26T01:53:22;99512.63;;;-1.11;100.00
13800;BME280;6971;50.028;9.258;2023-04-26T01:58:22;99516.16;;;-1.20;100.00
13800;BME280;6971;50.028;9.258;2023-04-26T02:03:23;99517.03;;;-1.30;100.00
13800;BME280;6971;50.028;9.258;2023-04-26T02:08:23;99516.16;;;-1.26;100.00
13800;BME280;6971;50.028;9.258;2023-04-26T02:13:24;99521.34;;;-1.32;100.00
13800;BME280;6971;50.028;9.258;2023-04-26T02:18:24;99527.41;;;-1.41;100.00
13800;BME280;6971;50.028;9.258;2023-04-26T02:23:25;99520.47;;;-1.34;100.00
13800;BME280;6971;50.028;9.258;2023-04-26T02:28:26;99529.19;;;-1.51;100.00
13800;BME280;6971;50.028;9.258;2023-04-26T02:33:26;99523.09;;;-1.42;100.00
13800;BME280;6971;50.028;9.258;2023-04-26T02:38:26;99519.69;;;-1.53;100.00
13800;BME280;6971;50.028;9.258;2023-04-26T02:43:27;99519.72;;;-1.58;100.00
13800;BME280;6971;50.028;9.258;2023-04-26T02:48:27;99523.16;;;-1.65;100.00
13800;BME280;6971;50.028;9.258;2023-04-26T02:53:28;99524.00;;;-1.60;100.00
13800;BME280;6971;50.028;9.258;2023-04-26T02:58:28;99524.03;;;-1.65;100.00
13800;BME280;6971;50.028;9.258;2023-04-26T03:03:28;99521.47;;;-1.73;100.00
13800;BME280;6971;50.028;9.258;2023-04-26T03:08:30;99519.75;;;-1.67;100.00
13800;BME280;6971;50.028;9.258;2023-04-26T03:13:30;99518.03;;;-1.75;100.00
13800;BME280;6971;50.028;9.258;2023-04-26T03:18:30;99509.41;;;-1.72;100.00
13800;BME280;6971;50.028;9.258;2023-04-26T03:23:31;99518.91;;;-1.74;100.00
13800;BME280;6971;50.028;9.258;2023-04-26T03:28:31;99519.75;;;-1.72;100.00
13800;BME280;6971;50.028;9.258;2023-04-26T03:33:31;99524.94;;;-1.83;100.00
13800;BME280;6971;50.028;9.258;2023-04-26T03:38:32;99514.59;;;-1.83;100.00
13800;BME280;6971;50.028;9.258;2023-04-26T03:43:32;99517.19;;;-1.86;100.00
13800;BME280;6971;50.028;9.258;2023-04-26T03:48:33;99523.22;;;-1.84;100.00
13800;BME280;6971;50.028;9.258;2023-04-26T03:53:33;99527.50;;;-1.81;100.00
13800;BME280;6971;50.028;9.258;2023-04-26T03:58:33;99524.97;;;-1.99;100.00
13800;BME280;6971;50.028;9.258;2023-04-26T04:03:34;99512.91;;;-1.93;100.00
13800;BME280;6971;50.028;9.258;2023-04-26T04:08:34;99512.88;;;-1.87;100.00
13800;BME280;6971;50.028;9.258;2023-04-26T04:13:35;99522.34;;;-1.95;100.00
13800;BME280;6971;50.028;9.258;2023-04-26T04:18:35;99519.81;;;-1.99;100.00
13800;BME280;6971;50.028;9.258;2023-04-26T04:23:36;99521.53;;;-1.94;100.00
13800;BME280;6971;50.028;9.258;2023-04-26T04:28:38;99520.66;;;-2.03;100.00
13800;BME280;6971;50.028;9.258;2023-04-26T04:33:38;99524.94;;;-2.05;100.00
13800;BME280;6971;50.028;9.258;2023-04-26T04:38:39;99522.38;;;-1.97;100.00
13800;BME280;6971;50.028;9.258;2023-04-26T04:43:42;99529.25;;;-1.94;100.00
13800;BME280;6971;50.028;9.258;2023-04-26T04:48:42;99530.97;;;-1.98;100.00
13800;BME280;6971;50.028;9.258;2023-04-26T04:53:43;99538.72;;;-1.84;100.00
13800;BME280;6971;50.028;9.258;2023-04-26T04:58:43;99537.84;;;-1.80;100.00
13800;BME280;6971;50.028;9.258;2023-04-26T05:03:44;99546.47;;;-1.81;100.00
13800;BME280;6971;50.028;9.258;2023-04-26T05:08:44;99550.78;;;-1.77;100.00
13800;BME280;6971;50.028;9.258;2023-04-26T05:13:47;99566.25;;;-1.74;100.00
13800;BME280;6971;50.028;9.258;2023-04-26T05:18:48;99568.81;;;-1.58;100.00
13800;BME280;6971;50.028;9.258;2023-04-26T05:23:48;99568.84;;;-1.66;100.00
13800;BME280;6971;50.028;9.258;2023-04-26T05:28:48;99572.28;;;-1.61;100.00
13800;BME280;6971;50.028;9.258;2023-04-26T05:33:49;99580.03;;;-1.62;100.00
13800;BME280;6971;50.028;9.258;2023-04-26T05:38:49;99580.00;;;-1.43;100.00
13800;BME280;6971;50.028;9.258;2023-04-26T05:43:49;99588.59;;;-1.35;100.00
13800;BME280;6971;50.028;9.258;2023-04-26T05:48:50;99577.38;;;-1.28;100.00
13800;BME280;6971;50.028;9.258;2023-04-26T05:53:51;99576.47;;;-1.14;100.00
13800;BME280;6971;50.028;9.258;2023-04-26T05:58:51;99586.78;;;-1.02;100.00
13800;BME280;6971;50.028;9.258;2023-04-26T06:03:52;99590.13;;;-0.80;100.00
13800;BME280;6971;50.028;9.258;2023-04-26T06:08:53;99593.47;;;-0.63;100.00
13800;BME280;6971;50.028;9.258;2023-04-26T06:13:53;99592.47;;;-0.33;100.00
13800;BME280;6971;50.028;9.258;2023-04-26T06:18:53;99591.34;;;-0.02;100.00
13800;BME280;6971;50.028;9.258;2023-04-26T06:23:53;99594.75;;;0.06;100.00
13800;BME280;6971;50.028;9.258;2023-04-26T06:28:54;99617.09;;;0.23;100.00
13800;BME280;6971;50.028;9.258;2023-04-26T06:33:54;99611.63;;;0.54;100.00
13800;BME280;6971;50.028;9.258;2023-04-26T06:38:55;99617.44;;;0.75;100.00
13800;BME280;6971;50.028;9.258;2023-04-26T06:43:55;99624.94;;;1.03;100.00
13800;BME280;6971;50.028;9.258;2023-04-26T06:48:55;99626.31;;;1.32;100.00
13800;BME280;6971;50.028;9.258;2023-04-26T06:53:56;99630.25;;;1.61;100.00
13800;BME280;6971;50.028;9.258;2023-04-26T06:58:58;99618.63;;;1.87;100.00
13800;BME280;6971;50.028;9.258;2023-04-26T07:04:03;99626.63;;;2.28;100.00
13800;BME280;6971;50.028;9.258;2023-04-26T07:09:06;99622.50;;;2.68;100.00
13800;BME280;6971;50.028;9.258;2023-04-26T07:14:09;99623.91;;;3.29;100.00
13800;BME280;6971;50.028;9.258;2023-04-26T07:19:11;99624.09;;;4.37;100.00
13800;BME280;6971;50.028;9.258;2023-04-26T07:24:11;99623.13;;;4.41;100.00
13800;BME280;6971;50.028;9.258;2023-04-26T07:29:12;99619.88;;;4.66;100.00
13800;BME280;6971;50.028;9.258;2023-04-26T07:34:13;99617.81;;;4.77;91.29
13800;BME280;6971;50.028;9.258;2023-04-26T07:39:13;99623.88;;;5.11;89.36
13800;BME280;6971;50.028;9.258;2023-04-26T07:44:14;99624.63;;;5.75;90.36
13800;BME280;6971;50.028;9.258;2023-04-26T07:49:15;99614.31;;;6.53;82.42
13800;BME280;6971;50.028;9.258;2023-04-26T07:54:15;99623.50;;;6.90;78.45
13800;BME280;6971;50.028;9.258;2023-04-26T07:59:15;99620.09;;;6.88;74.24
13800;BME280;6971;50.028;9.258;2023-04-26T08:04:17;99631.13;;;7.68;72.61
13800;BME280;6971;50.028;9.258;2023-04-26T08:09:18;99627.69;;;7.44;70.69
13800;BME280;6971;50.028;9.258;2023-04-26T08:14:18;99629.56;;;8.73;66.31
13800;BME280;6971;50.028;9.258;2023-04-26T08:19:18;99637.13;;;8.81;64.48
13800;BME280;6971;50.028;9.258;2023-04-26T08:24:18;99632.38;;;7.82;68.08
13800;BME280;6971;50.028;9.258;2023-04-26T08:29:19;99639.41;;;8.88;63.77
13800;BME280;6971;50.028;9.258;2023-04-26T08:34:22;99626.94;;;8.73;59.22
13800;BME280;6971;50.028;9.258;2023-04-26T08:39:23;99632.94;;;9.36;61.65
13800;BME280;6971;50.028;9.258;2023-04-26T08:44:24;99633.78;;;9.17;55.07
13800;BME280;6971;50.028;9.258;2023-04-26T08:49:39;99642.13;;;10.02;54.80
13800;BME280;6971;50.028;9.258;2023-04-26T08:54:40;99647.16;;;9.70;56.28
13800;BME280;6971;50.028;9.258;2023-04-26T08:59:41;99637.00;;;8.84;55.81
13800;BME280;6971;50.028;9.258;2023-04-26T09:04:44;99639.50;;;8.66;56.94
13800;BME280;6971;50.028;9.258;2023-04-26T09:09:48;99630.53;;;9.31;55.35
13800;BME280;6971;50.028;9.258;2023-04-26T09:14:50;99621.56;;;10.11;49.52
13800;BME280;6971;50.028;9.258;2023-04-26T09:19:50;99623.28;;;10.12;52.57
13800;BME280;6971;50.028;9.258;2023-04-26T09:24:51;99626.22;;;10.23;51.65
13800;BME280;6971;50.028;9.258;2023-04-26T09:30:01;99625.50;;;10.02;51.37
13800;BME280;6971;50.028;9.258;2023-04-26T09:35:02;99629.03;;;9.25;53.50
13800;BME280;6971;50.028;9.258;2023-04-26T09:40:16;99628.41;;;9.20;51.42
13800;BME280;6971;50.028;9.258;2023-04-26T09:45:17;99621.44;;;9.19;50.23
13800;BME280;6971;50.028;9.258;2023-04-26T09:50:28;99622.34;;;9.57;52.19
13800;BME280;6971;50.028;9.258;2023-04-26T09:55:29;99615.97;;;10.54;50.19
13800;BME280;6971;50.028;9.258;2023-04-26T10:00:30;99628.78;;;9.32;50.94
13800;BME280;6971;50.028;9.258;2023-04-26T10:05:31;99629.25;;;8.81;54.53
13800;BME280;6971;50.028;9.258;2023-04-26T10:10:32;99628.00;;;8.69;53.11
13800;BME280;6971;50.028;9.258;2023-04-26T10:15:33;99617.78;;;10.34;51.06
13800;BME280;6971;50.028;9.258;2023-04-26T10:20:39;99612.31;;;10.21;47.91
13800;BME280;6971;50.028;9.258;2023-04-26T10:25:41;99621.25;;;11.05;49.19
13800;BME280;6971;50.028;9.258;2023-04-26T10:30:58;99601.34;;;9.93;49.35
13800;BME280;6971;50.028;9.258;2023-04-26T10:41:38;99601.88;;;10.00;49.54
13800;BME280;6971;50.028;9.258;2023-04-26T10:46:40;99592.94;;;10.75;47.49
13800;BME280;6971;50.028;9.258;2023-04-26T10:52:07;99585.84;;;10.76;46.98
13800;BME280;6971;50.028;9.258;2023-04-26T10:57:09;99588.91;;;10.50;47.89
13800;BME280;6971;50.028;9.258;2023-04-26T11:02:10;99586.88;;;11.07;46.97
13800;BME280;6971;50.028;9.258;2023-04-26T11:07:12;99581.47;;;10.92;47.02
13800;BME280;6971;50.028;9.258;2023-04-26T11:12:14;99582.47;;;10.56;43.99
13800;BME280;6971;50.028;9.258;2023-04-26T11:17:15;99565.91;;;10.18;46.31
13800;BME280;6971;50.028;9.258;2023-04-26T11:22:20;99552.75;;;9.64;47.92
13800;BME280;6971;50.028;9.258;2023-04-26T11:27:26;99561.94;;;10.63;47.25
13800;BME280;6971;50.028;9.258;2023-04-26T11:32:29;99558.50;;;9.72;47.26
13800;BME280;6971;50.028;9.258;2023-04-26T11:37:32;99554.97;;;10.26;48.00
13800;BME280;6971;50.028;9.258;2023-04-26T11:42:33;99556.66;;;10.10;47.49
13800;BME280;6971;50.028;9.258;2023-04-26T11:47:33;99560.31;;;9.70;49.44
13800;BME280;6971;50.028;9.258;2023-04-26T11:52:34;99551.25;;;9.58;48.94
13800;BME280;6971;50.028;9.258;2023-04-26T11:57:35;99550.94;;;10.01;48.46
13800;BME280;6971;50.028;9.258;2023-04-26T12:02:35;99550.63;;;10.08;44.42
13800;BME280;6971;50.028;9.258;2023-04-26T12:07:36;99551.91;;;10.69;46.13
13800;BME280;6971;50.028;9.258;2023-04-26T12:12:37;99552.09;;;11.65;45.45
13800;BME280;6971;50.028;9.258;2023-04-26T12:17:53;99554.06;;;11.61;44.74
13800;BME280;6971;50.028;9.258;2023-04-26T12:22:58;99543.91;;;11.85;43.99
13800;BME280;6971;50.028;9.258;2023-04-26T12:27:58;99529.72;;;11.56;43.98
13800;BME280;6971;50.028;9.258;2023-04-26T12:32:59;99521.41;;;11.31;45.03
13800;BME280;6971;50.028;9.258;2023-04-26T12:38:00;99519.56;;;12.11;43.74
13800;BME280;6971;50.028;9.258;2023-04-26T12:43:00;99537.66;;;12.77;42.19
13800;BME280;6971;50.028;9.258;2023-04-26T12:48:01;99533.69;;;12.55;42.31
13800;BME280;6971;50.028;9.258;2023-04-26T12:53:01;99534.88;;;12.35;41.29
13800;BME280;6971;50.028;9.258;2023-04-26T12:58:02;99514.81;;;10.90;44.51
13800;BME280;6971;50.028;9.258;2023-04-26T13:03:03;99516.13;;;11.31;46.68
13800;BME280;6971;50.028;9.258;2023-04-26T13:08:03;99513.25;;;10.70;46.88
13800;BME280;6971;50.028;9.258;2023-04-26T13:13:03;99516.09;;;11.15;45.74
13800;BME280;6971;50.028;9.258;2023-04-26T13:18:04;99513.66;;;11.75;45.36
13800;BME280;6971;50.028;9.258;2023-04-26T13:23:05;99517.63;;;11.03;43.41
13800;BME280;6971;50.028;9.258;2023-04-26T13:28:05;99513.97;;;11.85;44.98
13800;BME280;6971;50.028;9.258;2023-04-26T13:33:05;99516.44;;;11.25;43.82
13800;BME280;6971;50.028;9.258;2023-04-26T13:38:06;99515.13;;;11.95;43.43
13800;BME280;6971;50.028;9.258;2023-04-26T13:43:06;99520.59;;;11.45;43.61
13800;BME280;6971;50.028;9.258;2023-04-26T13:48:10;99516.44;;;11.25;43.32
13800;BME280;6971;50.028;9.258;2023-04-26T13:53:10;99521.25;;;11.81;43.57
13800;BME280;6971;50.028;9.258;2023-04-26T13:58:11;99525.38;;;11.22;44.21
13800;BME280;6971;50.028;9.258;2023-04-26T14:03:11;99523.41;;;11.26;43.27
13800;BME280;6971;50.028;9.258;2023-04-26T14:08:11;99517.25;;;11.74;45.23
13800;BME280;6971;50.028;9.258;2023-04-26T14:13:13;99509.53;;;11.55;46.78
13800;BME280;6971;50.028;9.258;2023-04-26T14:18:15;99512.28;;;11.84;44.98
13800;BME280;6971;50.028;9.258;2023-04-26T14:23:15;99508.41;;;11.59;46.10
13800;BME280;6971;50.028;9.258;2023-04-26T14:28:16;99506.19;;;11.67;45.68
13800;BME280;6971;50.028;9.258;2023-04-26T14:33:16;99515.19;;;11.32;45.93
13800;BME280;6971;50.028;9.258;2023-04-26T14:38:17;99509.09;;;11.46;45.64
13800;BME280;6971;50.028;9.258;2023-04-26T14:43:17;99503.94;;;11.45;46.11
13800;BME280;6971;50.028;9.258;2023-04-26T14:48:17;99501.91;;;11.34;46.00
13800;BME280;6971;50.028;9.258;2023-04-26T14:53:18;99492.38;;;11.31;44.79
13800;BME280;6971;50.028;9.258;2023-04-26T14:58:18;99496.22;;;11.72;44.67
13800;BME280;6971;50.028;9.258;2023-04-26T15:03:19;99489.63;;;10.84;44.86
13800;BME280;6971;50.028;9.258;2023-04-26T15:08:20;99486.25;;;11.61;44.23
13800;BME280;6971;50.028;9.258;2023-04-26T15:13:22;99479.03;;;11.96;43.75
13800;BME280;6971;50.028;9.258;2023-04-26T15:18:23;99475.97;;;11.87;44.30
13800;BME280;6971;50.028;9.258;2023-04-26T15:23:24;99465.84;;;11.49;44.32
13800;BME280;6971;50.028;9.258;2023-04-26T15:28:25;99472.50;;;11.56;44.61
13800;BME280;6971;50.028;9.258;2023-04-26T15:33:25;99470.25;;;11.65;44.64
13800;BME280;6971;50.028;9.258;2023-04-26T15:38:25;99459.47;;;11.53;45.06
13800;BME280;6971;50.028;9.258;2023-04-26T15:43:26;99455.06;;;11.38;45.29
13800;BME280;6971;50.028;9.258;2023-04-26T15:48:28;99455.53;;;11.14;45.56
13800;BME280;6971;50.028;9.258;2023-04-26T15:53:29;99459.97;;;10.97;46.02
13800;BME280;6971;50.028;9.258;2023-04-26T15:58:29;99470.06;;;11.05;45.02
13800;BME280;6971;50.028;9.258;2023-04-26T16:03:29;99465.56;;;11.23;44.28
13800;BME280;6971;50.028;9.258;2023-04-26T16:08:30;99463.94;;;11.36;43.87
13800;BME280;6971;50.028;9.258;2023-04-26T16:13:30;99468.44;;;11.34;44.57
13800;BME280;6971;50.028;9.258;2023-04-26T16:18:32;99467.75;;;10.82;44.23
13800;BME280;6971;50.028;9.258;2023-04-26T16:23:34;99451.44;;;11.08;44.20
13800;BME280;6971;50.028;9.258;2023-04-26T16:28:35;99458.72;;;10.54;43.81
13800;BME280;6971;50.028;9.258;2023-04-26T16:33:35;99458.66;;;10.88;44.96
13800;BME280;6971;50.028;9.258;2023-04-26T16:38:35;99460.63;;;10.84;46.22
13800;BME280;6971;50.028;9.258;2023-04-26T16:43:36;99450.91;;;10.69;44.38
13800;BME280;6971;50.028;9.258;2023-04-26T16:48:37;99458.06;;;10.67;44.79
13800;BME280;6971;50.028;9.258;2023-04-26T16:53:38;99454.78;;;10.46;45.74
13800;BME280;6971;50.028;9.258;2023-04-26T16:58:38;99461.34;;;10.37;46.69
13800;BME280;6971;50.028;9.258;2023-04-26T17:03:38;99466.19;;;10.62;47.14
13800;BME280;6971;50.028;9.258;2023-04-26T17:08:39;99469.19;;;10.38;45.51
13800;BME280;6971;50.028;9.258;2023-04-26T17:13:39;99476.28;;;10.72;45.22
13800;BME280;6971;50.028;9.258;2023-04-26T17:18:39;99480.13;;;10.48;46.81
13800;BME280;6971;50.028;9.258;2023-04-26T17:23:40;99480.13;;;10.30;46.01
13800;BME280;6971;50.028;9.258;2023-04-26T17:28:41;99481.84;;;10.14;46.94
13800;BME280;6971;50.028;9.258;2023-04-26T17:33:41;99475.81;;;9.94;47.69
13800;BME280;6971;50.028;9.258;2023-04-26T17:38:42;99477.28;;;9.82;50.54
13800;BME280;6971;50.028;9.258;2023-04-26T17:43:43;99474.66;;;9.27;57.53
13800;BME280;6971;50.028;9.258;2023-04-26T17:48:44;99480.88;;;8.88;61.49
13800;BME280;6971;50.028;9.258;2023-04-26T17:53:44;99476.09;;;8.58;64.60
13800;BME280;6971;50.028;9.258;2023-04-26T17:58:45;99480.63;;;8.13;68.86
13800;BME280;6971;50.028;9.258;2023-04-26T18:03:45;99476.09;;;7.75;71.62
13800;BME280;6971;50.028;9.258;2023-04-26T18:08:45;99476.91;;;7.54;73.62
13800;BME280;6971;50.028;9.258;2023-04-26T18:13:46;99486.44;;;7.35;76.33
13800;BME280;6971;50.028;9.258;2023-04-26T18:18:47;99478.44;;;7.15;78.44
13800;BME280;6971;50.028;9.258;2023-04-26T18:23:47;99486.22;;;6.95;80.86
13800;BME280;6971;50.028;9.258;2023-04-26T18:28:47;99493.81;;;6.78;80.78
13800;BME280;6971;50.028;9.258;2023-04-26T18:33:48;99496.59;;;6.74;82.01
13800;BME280;6971;50.028;9.258;2023-04-26T18:38:48;99499.38;;;6.69;82.60
13800;BME280;6971;50.028;9.258;2023-04-26T18:43:49;99493.28;;;6.45;85.55
13800;BME280;6971;50.028;9.258;2023-04-26T18:48:49;99501.34;;;6.38;86.99
13800;BME280;6971;50.028;9.258;2023-04-26T18:53:50;99506.91;;;6.29;87.50
13800;BME280;6971;50.028;9.258;2023-04-26T18:58:50;99503.59;;;6.24;90.99
13800;BME280;6971;50.028;9.258;2023-04-26T19:03:50;99504.88;;;6.12;93.50
13800;BME280;6971;50.028;9.258;2023-04-26T19:08:51;99506.75;;;6.08;93.29
13800;BME280;6971;50.028;9.258;2023-04-26T19:13:51;99516.69;;;5.97;93.68
13800;BME280;6971;50.028;9.258;2023-04-26T19:18:51;99512.03;;;5.80;95.83
13800;BME280;6971;50.028;9.258;2023-04-26T19:23:52;99518.69;;;5.61;98.57
13800;BME280;6971;50.028;9.258;2023-04-26T19:28:52;99525.19;;;5.49;99.96
13800;BME280;6971;50.028;9.258;2023-04-26T19:33:54;99524.59;;;5.40;100.00
13800;BME280;6971;50.028;9.258;2023-04-26T19:38:55;99529.84;;;5.09;100.00
13800;BME280;6971;50.028;9.258;2023-04-26T19:43:55;99528.47;;;4.97;100.00
13800;BME280;6971;50.028;9.258;2023-04-26T19:48:55;99530.34;;;4.92;100.00
13800;BME280;6971;50.028;9.258;2023-04-26T19:53:56;99533.84;;;4.93;100.00
13800;BME280;6971;50.028;9.258;2023-04-26T19:58:56;99538.53;;;4.80;100.00
13800;BME280;6971;50.028;9.258;2023-04-26T20:03:56;99543.00;;;4.76;100.00
13800;BME280;6971;50.028;9.258;2023-04-26T20:08:57;99544.09;;;4.67;100.00
13800;BME280;6971;50.028;9.258;2023-04-26T20:13:57;99552.47;;;4.80;100.00
13800;BME280;6971;50.028;9.258;2023-04-26T20:18:58;99558.13;;;4.63;100.00
13800;BME280;6971;50.028;9.258;2023-04-26T20:23:58;99561.09;;;4.51;100.00
13800;BME280;6971;50.028;9.258;2023-04-26T20:28:58;99560.06;;;4.56;100.00
13800;BME280;6971;50.028;9.258;2023-04-26T20:33:59;99555.75;;;4.55;100.00
13800;BME280;6971;50.028;9.258;2023-04-26T20:38:59;99551.75;;;4.42;100.00
13800;BME280;6971;50.028;9.258;2023-04-26T20:44:00;99556.00;;;4.46;100.00
13800;BME280;6971;50.028;9.258;2023-04-26T20:49:00;99552.81;;;4.35;100.00
13800;BME280;6971;50.028;9.258;2023-04-26T20:54:01;99552.63;;;4.42;100.00
13800;BME280;6971;50.028;9.258;2023-04-26T20:59:02;99556.16;;;4.40;100.00
13800;BME280;6971;50.028;9.258;2023-04-26T21:04:02;99550.28;;;4.31;100.00
13800;BME280;6971;50.028;9.258;2023-04-26T21:09:02;99548.91;;;4.18;100.00
13800;BME280;6971;50.028;9.258;2023-04-26T21:14:04;99535.16;;;4.11;100.00
13800;BME280;6971;50.028;9.258;2023-04-26T21:19:05;99544.72;;;4.11;100.00
13800;BME280;6971;50.028;9.258;2023-04-26T21:24:06;99544.72;;;4.11;100.00
13800;BME280;6971;50.028;9.258;2023-04-26T21:29:07;99551.75;;;4.09;100.00
13800;BME280;6971;50.028;9.258;2023-04-26T21:34:07;99557.34;;;3.93;100.00
13800;BME280;6971;50.028;9.258;2023-04-26T21:39:08;99557.59;;;3.82;100.00
13800;BME280;6971;50.028;9.258;2023-04-26T21:44:09;99562.03;;;3.78;100.00
13800;BME280;6971;50.028;9.258;2023-04-26T21:49:10;99564.06;;;3.65;100.00
13800;BME280;6971;50.028;9.258;2023-04-26T21:54:10;99559.72;;;3.66;100.00
13800;BME280;6971;50.028;9.258;2023-04-26T21:59:12;99558.28;;;3.52;100.00
13800;BME280;6971;50.028;9.258;2023-04-26T22:04:13;99563.56;;;3.49;100.00
13800;BME280;6971;50.028;9.258;2023-04-26T22:09:15;99564.53;;;3.44;100.00
13800;BME280;6971;50.028;9.258;2023-04-26T22:14:16;99568.13;;;3.39;100.00
13800;BME280;6971;50.028;9.258;2023-04-26T22:19:16;99564.41;;;3.50;100.00
13800;BME280;6971;50.028;9.258;2023-04-26T22:24:17;99576.78;;;3.40;100.00
13800;BME280;6971;50.028;9.258;2023-04-26T22:29:17;99576.19;;;3.29;100.00
13800;BME280;6971;50.028;9.258;2023-04-26T22:34:17;99579.47;;;3.37;100.00
13800;BME280;6971;50.028;9.258;2023-04-26T22:39:19;99575.03;;;3.42;100.00
13800;BME280;6971;50.028;9.258;2023-04-26T22:44:19;99578.69;;;3.32;100.00
13800;BME280;6971;50.028;9.258;2023-04-26T22:49:19;99583.91;;;3.32;100.00
13800;BME280;6971;50.028;9.258;2023-04-26T22:54:20;99589.97;;;3.34;100.00
13800;BME280;6971;50.028;9.258;2023-04-26T22:59:20;99587.41;;;3.31;100.00
13800;BME280;6971;50.028;9.258;2023-04-26T23:04:20;99591.81;;;3.29;100.00
13800;BME280;6971;50.028;9.258;2023-04-26T23:09:21;99596.84;;;3.36;100.00
13800;BME280;6971;50.028;9.258;2023-04-26T23:14:21;99604.56;;;3.41;100.00
13800;BME280;6971;50.028;9.258;2023-04-26T23:19:23;99604.69;;;3.35;100.00
13800;BME280;6971;50.028;9.258;2023-04-26T23:24:23;99603.00;;;3.34;100.00
13800;BME280;6971;50.028;9.258;2023-04-26T23:29:23;99606.38;;;3.37;100.00
13800;BME280;6971;50.028;9.258;2023-04-26T23:34:24;99603.88;;;3.33;100.00
13800;BME280;6971;50.028;9.258;2023-04-26T23:39:24;99602.16;;;3.32;100.00
13800;BME280;6971;50.028;9.258;2023-04-26T23:44:24;99593.31;;;3.39;100.00
13800;BME280;6971;50.028;9.258;2023-04-26T23:49:25;99593.34;;;3.37;100.00
13800;BME280;6971;50.028;9.258;2023-04-26T23:54:25;99590.78;;;3.36;100.00
13800;BME280;6971;50.028;9.258;2023-04-26T23:59:25;99583.81;;;3.38;100.00
